createdAt,value
2023-01-28T02:15:19.841Z,-3.46
2023-01-28T02:17:49.564Z,-3.47
2023-01-28T02:20:23.269Z,-3.45
2023-01-28T02:23:28.413Z,-3.41
2023-01-28T02:26:01.865Z,-3.32
2023-01-28T02:28:39.329Z,-3.25
2023-01-28T02:31:12.227Z,-3.15
2023-01-28T02:33:49.670Z,-3.15
2023-01-28T02:36:28.588Z,-3.06
2023-01-28T02:38:58.765Z,-3.03
2023-01-28T02:41:30.488Z,-2.99
2023-01-28T02:44:02.628Z,-3.01
2023-01-28T02:46:49.312Z,-3.01
2023-01-28T02:49:45.175Z,-2.98
2023-01-28T02:52:46.490Z,-2.97
2023-01-28T02:55:41.495Z,-2.94
2023-01-28T02:58:37.700Z,-2.95
2023-01-28T03:01:23.569Z,-2.95
2023-01-28T03:03:59.767Z,-2.91
2023-01-28T03:06:34.547Z,-2.90
2023-01-28T03:09:24.363Z,-2.92
2023-01-28T03:12:38.439Z,-2.92
2023-01-28T03:15:29.169Z,-2.87
2023-01-28T03:18:26.125Z,-2.82
2023-01-28T03:21:23.266Z,-2.83
2023-01-28T03:24:16.437Z,-2.82
2023-01-28T03:27:12.479Z,-2.84
2023-01-28T03:30:00.420Z,-2.81
2023-01-28T03:32:47.733Z,-2.80
2023-01-28T03:35:34.501Z,-2.82
2023-01-28T03:38:18.718Z,-2.80
2023-01-28T03:40:55.390Z,-2.78
2023-01-28T03:43:24.122Z,-2.76
2023-01-28T03:45:52.621Z,-2.74
2023-01-28T03:48:22.213Z,-2.68
2023-01-28T03:51:00.466Z,-2.64
2023-01-28T03:53:29.635Z,-2.59
2023-01-28T03:55:58.917Z,-2.54
2023-01-28T03:58:48.683Z,-2.51
2023-01-28T04:01:17.050Z,-2.47
2023-01-28T04:03:45.100Z,-2.44
2023-01-28T04:06:19.283Z,-2.35
2023-01-28T04:09:16.657Z,-2.31
2023-01-28T04:11:54.694Z,-2.37
2023-01-28T04:14:30.018Z,-2.45
2023-01-28T04:17:24.903Z,-2.46
2023-01-28T04:19:53.370Z,-2.39
2023-01-28T04:22:22.222Z,-2.37
2023-01-28T04:24:52.476Z,-2.38
2023-01-28T04:27:20.722Z,-2.36
2023-01-28T04:29:50.573Z,-2.33
2023-01-28T04:32:40.517Z,-2.38
2023-01-28T04:35:32.086Z,-2.39
2023-01-28T04:38:13.009Z,-2.38
2023-01-28T04:41:02.393Z,-2.39
2023-01-28T04:43:34.241Z,-2.38
2023-01-28T04:46:32.411Z,-2.35
2023-01-28T04:49:07.751Z,-2.32
2023-01-28T04:51:53.486Z,-2.25
2023-01-28T04:54:45.024Z,-2.23
2023-01-28T04:57:13.067Z,-2.17
2023-01-28T04:59:41.190Z,-2.13
2023-01-28T05:02:09.383Z,-2.09
2023-01-28T05:04:37.554Z,-2.09
2023-01-28T05:07:05.934Z,-2.12
2023-01-28T05:09:37.376Z,-2.18
2023-01-28T05:12:06.099Z,-2.19
2023-01-28T05:14:34.573Z,-2.17
2023-01-28T05:17:07.825Z,-2.11
2023-01-28T05:19:37.980Z,-2.09
2023-01-28T05:22:11.686Z,-2.07
2023-01-28T05:24:44.015Z,-2.03
2023-01-28T05:27:12.184Z,-2.02
2023-01-28T05:29:40.269Z,-2.03
2023-01-28T05:32:09.641Z,-2.07
2023-01-28T05:34:37.808Z,-2.08
2023-01-28T05:37:11.602Z,-2.18
2023-01-28T05:39:40.282Z,-2.22
2023-01-28T05:42:09.528Z,-2.23
2023-01-28T05:44:42.508Z,-2.24
2023-01-28T05:47:25.213Z,-2.27
2023-01-28T05:50:01.015Z,-2.31
2023-01-28T05:52:45.687Z,-2.25
2023-01-28T05:55:23.361Z,-2.21
2023-01-28T05:57:52.075Z,-2.31
2023-01-28T06:00:23.191Z,-2.41
2023-01-28T06:02:52.578Z,-2.46
2023-01-28T06:05:21.607Z,-2.48
2023-01-28T06:07:49.747Z,-2.49
2023-01-28T06:10:18.227Z,-2.48
2023-01-28T06:12:48.979Z,-2.47
2023-01-28T06:15:40.194Z,-2.45
2023-01-28T06:18:21.868Z,-2.47
2023-01-28T06:20:50.920Z,-2.54
2023-01-28T06:23:19.465Z,-2.60
2023-01-28T06:25:47.478Z,-2.65
2023-01-28T06:28:17.770Z,-2.67
2023-01-28T06:30:49.435Z,-2.65
2023-01-28T06:33:21.432Z,-2.61
2023-01-28T06:35:49.849Z,-2.58
2023-01-28T06:38:18.766Z,-2.63
2023-01-28T06:40:55.788Z,-2.67
2023-01-28T06:43:28.245Z,-2.65
2023-01-28T06:45:57.091Z,-2.61
2023-01-28T06:48:25.233Z,-2.57
2023-01-28T06:50:57.114Z,-2.53
2023-01-28T06:53:25.501Z,-2.50
2023-01-28T06:55:53.800Z,-2.48
2023-01-28T06:58:22.367Z,-2.41
2023-01-28T07:00:50.686Z,-2.37
2023-01-28T07:03:18.887Z,-2.38
2023-01-28T07:05:47.047Z,-2.42
2023-01-28T07:08:15.168Z,-2.49
2023-01-28T07:10:44.074Z,-2.49
2023-01-28T07:13:12.283Z,-2.44
2023-01-28T07:15:41.890Z,-2.48
2023-01-28T07:18:09.907Z,-2.52
2023-01-28T07:20:37.878Z,-2.52
2023-01-28T07:23:06.065Z,-2.56
2023-01-28T07:25:34.808Z,-2.57
2023-01-28T07:28:02.824Z,-2.60
2023-01-28T07:30:31.634Z,-2.61
2023-01-28T07:32:59.952Z,-2.68
2023-01-28T07:35:28.055Z,-2.67
2023-01-28T07:37:57.650Z,-2.58
2023-01-28T07:40:26.443Z,-2.47
2023-01-28T12:10:03.316Z,-3.00
2023-01-28T12:12:41.807Z,-2.93
2023-01-28T12:15:39.925Z,-2.83
2023-01-28T12:18:12.243Z,-2.71
2023-01-28T12:20:40.175Z,-2.55
2023-01-28T12:23:12.514Z,-2.34
2023-01-28T12:25:47.961Z,-2.11
2023-01-28T12:28:25.855Z,-1.89
2023-01-28T12:31:18.187Z,-1.71
2023-01-28T12:33:56.624Z,-1.51
2023-01-28T12:36:43.590Z,-1.38
2023-01-28T12:39:20.434Z,-1.24
2023-01-28T12:41:51.270Z,-1.08
2023-01-28T12:44:23.765Z,-1.00
2023-01-28T12:46:54.015Z,-0.92
2023-01-28T12:49:40.596Z,-0.73
2023-01-28T12:52:19.223Z,-0.67
2023-01-28T12:55:21.250Z,-0.66
2023-01-28T12:57:57.143Z,-0.46
2023-01-28T13:00:39.520Z,-0.27
2023-01-28T13:03:26.571Z,-0.23
2023-01-28T13:06:02.916Z,-0.04
2023-01-28T13:08:31.117Z,0.03
2023-01-28T13:11:00.484Z,0.04
2023-01-28T13:13:31.071Z,-0.01
2023-01-28T13:15:59.908Z,-0.05
2023-01-28T13:18:39.529Z,0.16
2023-01-28T13:21:25.203Z,0.51
2023-01-28T13:24:02.486Z,0.55
2023-01-28T13:26:38.452Z,0.35
2023-01-28T13:29:15.699Z,0.26
2023-01-28T13:31:45.238Z,0.27
2023-01-28T13:34:51.422Z,0.31
2023-01-28T13:37:32.159Z,0.32
2023-01-28T13:40:09.317Z,0.39
2023-01-28T13:42:37.395Z,0.43
2023-01-28T13:45:18.109Z,0.39
2023-01-28T13:47:48.093Z,0.42
2023-01-28T13:50:23.553Z,0.36
2023-01-28T13:53:25.650Z,0.21
2023-01-28T13:55:54.302Z,0.11
2023-01-28T13:58:30.994Z,0.05
2023-01-28T14:01:27.170Z,0.00
2023-01-28T14:04:22.761Z,-0.04
2023-01-28T14:07:12.249Z,-0.11
2023-01-28T14:09:49.159Z,-0.15
2023-01-28T14:12:39.378Z,-0.12
2023-01-28T14:15:23.129Z,-0.16
2023-01-28T14:17:52.502Z,-0.27
2023-01-28T14:20:27.578Z,-0.41
2023-01-28T14:23:00.019Z,-0.56
2023-01-28T14:25:49.862Z,-0.70
2023-01-28T14:28:21.459Z,-0.84
2023-01-28T14:30:57.853Z,-0.98
2023-01-28T14:33:25.814Z,-1.09
2023-01-28T14:35:53.737Z,-1.11
2023-01-28T14:38:21.788Z,-1.09
2023-01-28T14:40:52.730Z,-1.19
2023-01-28T14:43:22.503Z,-1.32
2023-01-28T14:45:53.282Z,-1.48
2023-01-28T14:48:43.417Z,-1.63
2023-01-28T14:51:18.887Z,-1.76
2023-01-28T14:54:09.221Z,-1.79
2023-01-28T14:57:08.626Z,-1.85
2023-01-28T14:59:50.104Z,-1.94
2023-01-28T15:02:20.263Z,-2.00
2023-01-28T15:04:49.835Z,-2.05
2023-01-28T15:07:25.521Z,-2.08
2023-01-28T15:10:07.734Z,-2.09
2023-01-28T15:12:38.025Z,-2.10
2023-01-28T15:15:11.687Z,-2.15
2023-01-28T15:17:39.910Z,-2.23
2023-01-28T15:20:09.055Z,-2.31
2023-01-28T15:22:37.012Z,-2.36
2023-01-28T15:25:07.453Z,-2.27
2023-01-28T15:27:35.852Z,-2.14
2023-01-28T15:30:27.822Z,-2.07
2023-01-28T15:33:12.854Z,-2.03
2023-01-28T15:35:48.194Z,-2.05
2023-01-28T15:38:17.941Z,-2.07
2023-01-28T15:40:55.207Z,-2.21
2023-01-28T15:43:25.795Z,-2.33
2023-01-28T15:45:57.050Z,-2.35
2023-01-28T15:48:26.585Z,-2.37
2023-01-28T15:51:02.604Z,-2.42
2023-01-28T19:58:45.786Z,-2.91
2023-01-28T20:01:14.861Z,-2.94
2023-01-28T20:03:43.918Z,-2.92
2023-01-28T20:06:13.703Z,-2.88
2023-01-28T20:08:42.180Z,-2.86
2023-01-28T20:11:14.972Z,-2.84
2023-01-28T20:13:44.316Z,-2.82
2023-01-28T20:16:17.833Z,-2.80
2023-01-28T20:18:53.571Z,-2.79
2023-01-28T20:21:21.654Z,-2.77
2023-01-28T20:23:51.515Z,-2.75
2023-01-28T20:26:24.020Z,-2.74
2023-01-28T20:28:52.076Z,-2.72
2023-01-28T20:31:20.718Z,-2.68
2023-01-28T20:33:49.221Z,-2.64
2023-01-28T20:36:17.303Z,-2.64
2023-01-28T20:38:46.792Z,-2.64
2023-01-28T20:41:16.766Z,-2.64
2023-01-28T20:43:45.013Z,-2.64
2023-01-28T20:46:21.340Z,-2.64
2023-01-28T20:48:49.688Z,-2.66
2023-01-28T20:51:19.214Z,-2.67
2023-01-28T20:53:48.048Z,-2.70
2023-01-28T20:56:19.486Z,-2.73
2023-01-28T20:58:49.411Z,-2.77
2023-01-28T21:01:28.344Z,-2.80
2023-01-28T21:03:56.266Z,-2.84
2023-01-28T21:06:26.678Z,-2.88
2023-01-28T21:08:54.711Z,-2.92
2023-01-28T21:11:23.290Z,-2.98
2023-01-28T21:13:51.529Z,-3.03
2023-01-28T21:16:19.758Z,-3.07
2023-01-28T21:18:48.708Z,-3.10
2023-01-28T21:21:18.006Z,-3.12
2023-01-28T21:23:46.006Z,-3.14
2023-01-28T21:26:15.628Z,-3.17
2023-01-28T21:28:44.231Z,-3.21
2023-01-28T21:31:17.052Z,-3.25
2023-01-28T21:33:52.015Z,-3.29
2023-01-28T21:36:20.038Z,-3.33
2023-01-28T21:38:55.350Z,-3.36
2023-01-28T21:41:24.672Z,-3.41
2023-01-28T21:43:53.876Z,-3.44
2023-01-28T21:46:27.000Z,-3.44
2023-01-28T21:49:01.259Z,-3.45
2023-01-28T21:51:36.114Z,-3.46
2023-01-28T21:54:05.016Z,-3.51
2023-01-28T21:56:33.549Z,-3.55
2023-01-28T21:59:20.369Z,-3.56
2023-01-28T22:01:48.361Z,-3.58
2023-01-28T22:04:20.989Z,-3.62
2023-01-28T22:06:49.428Z,-3.67
2023-01-28T22:09:17.456Z,-3.70
2023-01-28T22:11:46.644Z,-3.73
2023-01-28T22:14:15.133Z,-3.74
2023-01-28T22:16:43.427Z,-3.77
2023-01-28T22:19:11.631Z,-3.70
2023-01-28T22:21:43.713Z,-3.55
2023-01-28T22:24:16.254Z,-3.38
2023-01-28T22:26:45.482Z,-3.43
2023-01-28T22:29:14.272Z,-3.56
2023-01-28T22:31:42.423Z,-3.71
2023-01-28T22:34:10.486Z,-3.79
2023-01-28T22:36:38.362Z,-3.85
2023-01-28T22:39:07.521Z,-3.92
2023-01-28T22:41:35.560Z,-3.91
2023-01-28T22:44:04.494Z,-3.81
2023-01-28T22:46:33.500Z,-3.62
2023-01-28T22:49:02.525Z,-3.61
2023-01-28T22:51:32.081Z,-3.59
2023-01-28T22:54:00.382Z,-3.43
2023-01-28T22:56:29.453Z,-3.30
2023-01-28T22:58:59.283Z,-3.28
2023-01-28T23:01:27.783Z,-3.31
2023-01-28T23:03:56.294Z,-3.22
2023-01-28T23:06:28.077Z,-3.15
2023-01-28T23:08:56.571Z,-3.24
2023-01-28T23:11:28.316Z,-3.34
2023-01-28T23:14:16.903Z,-3.45
2023-01-28T23:17:03.617Z,-3.53
2023-01-28T23:19:50.731Z,-3.56
2023-01-28T23:22:42.666Z,-3.68
2023-01-28T23:25:10.902Z,-3.75
2023-01-28T23:27:38.815Z,-3.80
2023-01-28T23:30:10.374Z,-3.87
2023-01-28T23:32:44.009Z,-3.95
2023-01-28T23:35:12.845Z,-4.01
2023-01-28T23:37:41.642Z,-4.06
2023-01-28T23:40:10.870Z,-4.08
2023-01-28T23:42:38.958Z,-4.13
2023-01-28T23:45:07.648Z,-4.18
